Rickreall, Oregon
Current Conditions -  °F | °C
As of 7:56 AM on Thursday 27 Nov 2014 (Local Time) from KSLE Reporting Station
Light Rain Light Rain  
Wind Chill: 54°   Ceiling: 5500
Heat Index: 54°   Visibility: 7mi
Dew Point: 49°   Wind: 8mph
Humidity: 83%   Direction: 150°SSE
Pressure: 29.98"   Gusts: NA
Location:  44.93°N, 123.23°W
Report Text: KSLE 271556Z 15007KT 7SM -RA BKN055 OVC070 12/09 A2998 RMK AO2 SLP153 P0002 T01220094
Loading
Personal Weather Stations






























Interactive Weather Map New forecast layout! Learn more

10-Day Weather Forecast

Advertisements
Track Severe Weather on mobile